Cox Field
KPRX : now visible

Airfield :











YOU CAN JOIN US ON...

 
LOGIN :

Register | Disclaimer

   EN    FR    IT 

 









Legend :    VFR   Marginal VFR   IFR   Intensive IFR   Very Intensive IFR
Visi :
Ceiling :
>= 8 km
>= 3000ft
5 to 8 km
1000 to 3000 ft
1500m to 5 km
500 to 1000 ft
800 to 1500m
200 to 500 ft
< 800m
< 200 ft
Symbols :   Thunderstorms  Fog  Heavy snow  Heavy precipitations  Wind > 20 kt







- Airport Elevation : 547 ft


KPRX - Cox Field

CURRENT METAR :
  • 211756Z AUTO 28004KT 10SM FEW046 33/22 A3003 RMK AO2 SLP170 T03330222 10350 20233 58010

EXPIRED METARs :
  • 211656Z AUTO 19004KT 10SM CLR 33/23 A3006 RMK AO2 SLP180 T03330233
  • 211556Z AUTO 00000KT 10SM CLR 32/23 A3006 RMK AO2 SLP180 T03220233

TAF N/A
No reported NOTAMs for that airfield.



MET'MAP, your aeronautical weather chart ! - Copyright ORBIFLY December 2007 - Disclaimer

ORBIFLY MET'MAP TEAM :

Programming & Development : Alexandra Zaïnal
Concept & Development : Baudouin d'Aumeries
Co-Development & Prog : Marc-Olivier Méhu
Technical & hardware support : Manuel Goepfert

Contact : metmap@orbifly.com




SOURCES & CREDITS :

   NOAA       Earth
Advisory